createdAt,value
2019-03-29T00:00:16.324Z,10.10
2019-03-29T00:02:44.777Z,10.10
2019-03-29T00:05:13.081Z,10.10
2019-03-29T00:07:41.966Z,10.00
2019-03-29T00:10:10.610Z,10.00
2019-03-29T00:12:39.012Z,10.00
2019-03-29T00:15:08.072Z,10.00
2019-03-29T00:17:36.741Z,10.00
2019-03-29T00:20:06.889Z,9.90
2019-03-29T00:22:35.245Z,9.90
2019-03-29T00:25:03.627Z,9.70
2019-03-29T00:27:32.002Z,9.60
2019-03-29T00:30:00.370Z,9.60
2019-03-29T00:32:28.768Z,9.60
2019-03-29T00:34:57.146Z,9.50
2019-03-29T00:37:25.530Z,9.50
2019-03-29T00:39:53.905Z,9.50
2019-03-29T00:42:22.304Z,9.50
2019-03-29T00:44:50.676Z,9.30
2019-03-29T00:47:19.076Z,9.30
2019-03-29T00:49:47.438Z,9.30
2019-03-29T00:52:16.814Z,9.30
2019-03-29T00:54:45.302Z,9.10
2019-03-29T00:57:13.715Z,9.00
2019-03-29T00:59:42.087Z,8.90
2019-03-29T01:02:10.632Z,8.90
2019-03-29T01:04:39.010Z,8.80
2019-03-29T01:07:07.383Z,8.70
2019-03-29T01:09:35.789Z,8.70
2019-03-29T01:12:04.164Z,8.60
2019-03-29T01:14:32.545Z,8.60
2019-03-29T01:17:00.915Z,8.50
2019-03-29T01:19:29.902Z,8.50
2019-03-29T01:21:58.265Z,8.40
2019-03-29T01:24:26.672Z,8.40
2019-03-29T01:26:55.045Z,8.30
2019-03-29T01:29:23.441Z,8.40
2019-03-29T01:31:51.800Z,8.30
2019-03-29T01:34:20.203Z,8.40
2019-03-29T01:36:48.562Z,8.50
2019-03-29T01:39:17.003Z,8.50
2019-03-29T01:41:45.556Z,8.50
2019-03-29T01:44:13.958Z,8.40
2019-03-29T01:46:42.336Z,8.30
2019-03-29T01:49:10.751Z,8.20
2019-03-29T01:51:39.165Z,8.20
2019-03-29T01:54:07.560Z,8.20
2019-03-29T01:56:35.924Z,8.10
2019-03-29T01:59:04.376Z,8.10
2019-03-29T02:01:32.766Z,8.00
2019-03-29T02:04:01.241Z,8.00
2019-03-29T02:06:29.629Z,8.10
2019-03-29T02:08:58.041Z,8.10
2019-03-29T02:11:26.537Z,7.90
2019-03-29T02:13:55.029Z,7.90
2019-03-29T02:16:23.433Z,7.70
2019-03-29T02:18:51.855Z,7.80
2019-03-29T02:21:20.243Z,7.70
2019-03-29T02:23:48.745Z,7.70
2019-03-29T02:26:17.101Z,7.60
2019-03-29T02:28:45.497Z,7.50
2019-03-29T02:31:13.942Z,7.60
2019-03-29T02:33:42.337Z,7.60
2019-03-29T02:36:10.764Z,7.60
2019-03-29T02:38:54.080Z,7.60
2019-03-29T02:41:09.730Z,7.50
2019-03-29T02:43:38.671Z,7.40
2019-03-29T02:46:07.362Z,7.40
2019-03-29T02:48:35.921Z,7.40
2019-03-29T02:51:04.751Z,7.40
2019-03-29T02:53:33.648Z,7.40
2019-03-29T02:56:02.059Z,7.40
2019-03-29T02:58:30.558Z,7.40
2019-03-29T03:00:58.980Z,7.40
2019-03-29T03:03:27.373Z,7.40
2019-03-29T03:05:55.787Z,7.30
2019-03-29T03:08:24.173Z,7.40
2019-03-29T03:10:52.598Z,7.40
2019-03-29T03:13:20.997Z,7.30
2019-03-29T03:15:49.507Z,7.30
2019-03-29T03:18:17.864Z,7.30
2019-03-29T03:20:46.278Z,7.20
2019-03-29T03:23:14.787Z,7.20
2019-03-29T03:25:43.219Z,7.20
2019-03-29T03:28:11.609Z,7.20
2019-03-29T03:30:40.048Z,7.20
2019-03-29T03:33:08.501Z,7.10
2019-03-29T03:35:37.018Z,7.10
2019-03-29T03:38:05.445Z,7.20
2019-03-29T03:40:33.882Z,7.20
2019-03-29T03:43:02.350Z,7.10
2019-03-29T03:45:30.786Z,7.00
2019-03-29T03:47:59.183Z,7.00
2019-03-29T03:50:46.996Z,6.90
2019-03-29T03:53:15.368Z,6.90
2019-03-29T03:55:43.769Z,6.80
2019-03-29T03:58:12.318Z,6.70
2019-03-29T04:00:55.549Z,6.70
2019-03-29T04:03:24.069Z,6.80
2019-03-29T04:05:52.460Z,6.70
2019-03-29T04:08:20.878Z,6.70
2019-03-29T04:10:49.246Z,6.80
2019-03-29T04:13:17.618Z,6.80
2019-03-29T04:15:46.025Z,6.70
2019-03-29T04:18:16.094Z,6.80
2019-03-29T04:20:44.480Z,6.80
2019-03-29T04:23:12.845Z,6.80
2019-03-29T04:25:41.267Z,6.70
2019-03-29T04:28:09.633Z,6.60
2019-03-29T04:30:38.020Z,6.60
2019-03-29T04:33:10.833Z,6.50
2019-03-29T04:35:36.520Z,6.50
2019-03-29T04:38:04.825Z,6.50
2019-03-29T04:40:33.219Z,6.40
2019-03-29T04:43:01.619Z,6.40
2019-03-29T04:45:30.013Z,6.40
2019-03-29T04:47:58.404Z,6.40
2019-03-29T04:50:28.001Z,6.40
2019-03-29T04:52:56.370Z,6.30
2019-03-29T04:55:24.779Z,6.40
2019-03-29T04:57:53.133Z,6.40
2019-03-29T05:00:21.623Z,6.30
2019-03-29T05:02:50.013Z,6.40
2019-03-29T05:05:18.408Z,6.40
2019-03-29T05:07:46.784Z,6.30
2019-03-29T05:10:21.445Z,6.30
2019-03-29T05:12:45.208Z,6.30
2019-03-29T05:15:13.590Z,6.50
2019-03-29T05:17:41.989Z,6.30
2019-03-29T05:20:10.365Z,6.20
2019-03-29T05:22:38.768Z,6.30
2019-03-29T05:25:07.185Z,6.40
2019-03-29T05:27:35.597Z,6.40
2019-03-29T05:30:05.323Z,6.40
2019-03-29T05:32:33.710Z,6.50
2019-03-29T05:35:02.155Z,6.60
2019-03-29T05:37:30.552Z,6.80
2019-03-29T05:39:58.931Z,6.90
2019-03-29T05:42:27.388Z,7.00
2019-03-29T05:44:55.796Z,7.10
2019-03-29T05:47:24.179Z,7.20
2019-03-29T05:49:52.551Z,7.30
2019-03-29T05:52:20.938Z,7.40
2019-03-29T05:54:49.320Z,7.60
2019-03-29T05:57:17.720Z,7.60
2019-03-29T05:59:46.101Z,7.70
2019-03-29T06:02:14.497Z,7.80
2019-03-29T06:04:42.877Z,8.10
2019-03-29T06:07:11.276Z,8.30
2019-03-29T06:09:39.657Z,8.40
2019-03-29T06:12:08.055Z,8.40
2019-03-29T06:14:36.446Z,8.40
2019-03-29T06:17:04.832Z,8.60
2019-03-29T06:19:33.207Z,8.60
2019-03-29T06:22:01.612Z,8.70
2019-03-29T06:24:29.976Z,8.70
2019-03-29T06:26:58.373Z,8.70
2019-03-29T06:29:26.743Z,8.70
2019-03-29T06:31:55.158Z,9.10
2019-03-29T06:34:23.520Z,9.70
2019-03-29T06:36:51.920Z,10.30
2019-03-29T06:39:21.389Z,11.10
2019-03-29T06:41:49.938Z,12.10
2019-03-29T06:44:18.321Z,13.50
2019-03-29T06:46:46.720Z,15.10
2019-03-29T06:49:15.103Z,15.90
2019-03-29T06:51:43.512Z,17.20
2019-03-29T06:54:11.900Z,18.40
2019-03-29T06:56:40.304Z,18.20
2019-03-29T06:59:08.699Z,17.30
2019-03-29T07:01:37.096Z,16.50
2019-03-29T07:04:05.471Z,17.00
2019-03-29T07:06:33.875Z,16.60
2019-03-29T07:09:02.256Z,16.60
2019-03-29T07:11:30.654Z,16.60
2019-03-29T07:13:59.035Z,15.50
2019-03-29T07:16:27.439Z,15.60
2019-03-29T07:18:55.816Z,16.00
2019-03-29T07:21:24.201Z,16.30
2019-03-29T07:23:52.599Z,16.10
2019-03-29T07:26:20.980Z,15.70
2019-03-29T07:28:49.403Z,15.20
2019-03-29T07:31:17.782Z,15.10
2019-03-29T07:33:46.116Z,14.70
2019-03-29T07:36:14.500Z,14.90
2019-03-29T07:38:42.904Z,15.20
2019-03-29T07:41:11.298Z,14.80
2019-03-29T07:43:39.699Z,14.10
2019-03-29T07:46:08.075Z,14.50
2019-03-29T07:48:36.463Z,14.50
2019-03-29T07:51:04.908Z,14.70
2019-03-29T07:53:33.229Z,14.40
2019-03-29T07:56:01.608Z,14.30
2019-03-29T07:58:29.999Z,14.30
2019-03-29T08:00:58.378Z,14.40
2019-03-29T08:03:26.775Z,14.30
2019-03-29T08:05:55.144Z,14.60
2019-03-29T08:08:29.101Z,14.00
2019-03-29T08:10:54.217Z,13.70
2019-03-29T08:13:22.666Z,13.80
2019-03-29T08:15:51.030Z,13.60
2019-03-29T08:18:19.468Z,13.60
2019-03-29T08:20:49.472Z,14.10
2019-03-29T08:23:17.867Z,14.70
2019-03-29T08:25:46.246Z,15.40
2019-03-29T08:28:14.646Z,15.40
2019-03-29T08:30:43.024Z,14.70
2019-03-29T08:33:11.492Z,14.60
2019-03-29T08:35:41.466Z,14.50
2019-03-29T08:38:09.763Z,14.60
2019-03-29T08:40:38.138Z,14.90
2019-03-29T08:43:06.544Z,14.80
2019-03-29T08:45:34.925Z,14.50
2019-03-29T08:48:06.509Z,14.70
2019-03-29T08:50:33.359Z,15.30
2019-03-29T08:53:01.896Z,15.80
2019-03-29T08:55:30.276Z,15.50
2019-03-29T08:57:58.903Z,15.40
2019-03-29T09:00:30.595Z,15.80
2019-03-29T09:02:58.988Z,15.70
2019-03-29T09:05:27.399Z,15.30
2019-03-29T09:07:55.802Z,15.40
2019-03-29T09:10:27.619Z,15.40
2019-03-29T09:12:56.028Z,15.60
2019-03-29T09:15:24.446Z,15.60
2019-03-29T09:17:52.844Z,15.60
2019-03-29T09:20:21.227Z,15.70
2019-03-29T09:22:49.644Z,15.60
2019-03-29T09:25:20.887Z,15.70
2019-03-29T09:27:48.067Z,16.40
2019-03-29T09:30:16.457Z,16.30
2019-03-29T09:32:44.866Z,16.50
2019-03-29T09:35:13.267Z,16.50
2019-03-29T09:37:41.665Z,16.20
2019-03-29T09:40:10.060Z,16.50
2019-03-29T09:42:38.447Z,16.40
2019-03-29T09:45:07.472Z,16.40
2019-03-29T09:47:40.171Z,16.40
2019-03-29T09:50:10.060Z,16.40
2019-03-29T09:52:36.928Z,16.70
2019-03-29T09:55:05.380Z,17.10
2019-03-29T09:57:38.199Z,17.00
2019-03-29T10:00:18.017Z,17.10
2019-03-29T10:02:36.738Z,17.20
2019-03-29T10:05:05.962Z,17.50
2019-03-29T10:07:34.322Z,17.80
2019-03-29T10:10:02.724Z,18.20
2019-03-29T10:12:42.802Z,17.40
2019-03-29T10:15:01.140Z,17.50
2019-03-29T10:17:29.514Z,17.30
2019-03-29T10:19:57.979Z,17.10
2019-03-29T10:22:26.361Z,17.20
2019-03-29T10:24:54.764Z,17.30
2019-03-29T10:27:23.141Z,17.00
2019-03-29T10:29:51.551Z,16.70
2019-03-29T10:32:19.918Z,16.60
2019-03-29T10:34:48.311Z,16.70
2019-03-29T10:37:16.675Z,16.70
2019-03-29T10:39:45.087Z,17.10
2019-03-29T10:42:14.349Z,17.70
2019-03-29T10:44:42.746Z,18.20
2019-03-29T10:47:11.135Z,18.10
2019-03-29T10:49:39.531Z,18.20
2019-03-29T10:52:07.908Z,18.10
2019-03-29T10:54:36.303Z,18.30
2019-03-29T10:57:04.673Z,18.70
2019-03-29T10:59:33.079Z,18.80
2019-03-29T11:02:01.446Z,19.30
2019-03-29T11:04:31.834Z,20.10
2019-03-29T11:06:59.865Z,21.00
2019-03-29T11:09:28.261Z,22.10
2019-03-29T11:11:56.626Z,24.20
2019-03-29T11:14:25.027Z,24.80
2019-03-29T11:16:53.390Z,24.00
2019-03-29T11:19:21.819Z,22.80
2019-03-29T11:21:50.211Z,21.30
2019-03-29T11:24:18.611Z,20.00
2019-03-29T11:26:46.985Z,19.20
2019-03-29T11:29:15.392Z,18.40
2019-03-29T11:31:43.768Z,19.30
2019-03-29T11:34:12.175Z,19.10
2019-03-29T11:36:40.533Z,19.10
2019-03-29T11:39:08.924Z,18.60
2019-03-29T11:41:37.307Z,18.10
2019-03-29T11:44:05.679Z,18.10
2019-03-29T11:46:34.071Z,17.80
2019-03-29T11:49:02.527Z,18.20
2019-03-29T11:51:30.915Z,18.20
2019-03-29T11:53:59.354Z,18.50
2019-03-29T11:56:27.747Z,18.40
2019-03-29T11:58:56.122Z,18.10
2019-03-29T12:01:24.536Z,17.90
2019-03-29T12:03:52.911Z,17.90
2019-03-29T12:06:21.302Z,17.80
2019-03-29T12:08:49.673Z,17.90
2019-03-29T12:11:18.078Z,18.10
2019-03-29T12:13:46.501Z,18.30
2019-03-29T12:16:14.898Z,18.30
2019-03-29T12:18:43.278Z,18.40
2019-03-29T12:21:11.656Z,18.40
2019-03-29T12:23:40.026Z,18.30
2019-03-29T12:26:08.419Z,18.40
2019-03-29T12:28:36.787Z,18.40
2019-03-29T12:31:05.176Z,18.40
2019-03-29T12:33:33.557Z,18.20
2019-03-29T12:36:02.019Z,18.10
2019-03-29T12:38:30.439Z,18.10
2019-03-29T12:40:58.839Z,18.00
2019-03-29T12:43:27.206Z,17.90
2019-03-29T12:45:55.611Z,17.80
2019-03-29T12:48:23.986Z,17.70
2019-03-29T12:50:52.383Z,17.80
2019-03-29T12:53:20.767Z,17.60
2019-03-29T12:55:49.151Z,17.50
2019-03-29T12:58:17.524Z,17.70
2019-03-29T13:00:45.921Z,17.70
2019-03-29T13:03:14.282Z,17.70
2019-03-29T13:05:42.762Z,17.80
2019-03-29T13:08:11.127Z,17.80
2019-03-29T13:10:42.396Z,17.90
2019-03-29T13:13:09.547Z,18.00
2019-03-29T13:15:37.918Z,18.00
2019-03-29T13:18:06.304Z,18.00
2019-03-29T13:20:34.695Z,18.00
2019-03-29T13:23:03.065Z,18.10
2019-03-29T13:25:31.474Z,18.10
2019-03-29T13:27:59.858Z,18.10
2019-03-29T13:30:28.322Z,18.10
2019-03-29T13:32:56.680Z,18.20
2019-03-29T13:35:25.078Z,18.20
2019-03-29T13:37:53.456Z,18.20
2019-03-29T13:40:21.915Z,18.30
2019-03-29T13:42:50.232Z,18.30
2019-03-29T13:45:18.624Z,18.40
2019-03-29T13:47:46.987Z,18.50
2019-03-29T13:50:15.392Z,18.60
2019-03-29T13:52:43.881Z,18.60
2019-03-29T13:55:12.231Z,18.40
2019-03-29T13:57:40.630Z,18.40
2019-03-29T14:00:10.826Z,18.40
2019-03-29T14:02:39.228Z,18.40
2019-03-29T14:05:07.605Z,18.50
2019-03-29T14:07:36.000Z,18.60
2019-03-29T14:10:06.610Z,18.50
2019-03-29T14:12:35.008Z,18.50
2019-03-29T14:15:03.545Z,18.60
2019-03-29T14:17:31.940Z,18.70
2019-03-29T14:20:00.390Z,18.70
2019-03-29T14:22:28.711Z,18.70
2019-03-29T14:24:57.086Z,18.50
2019-03-29T14:27:25.491Z,18.50
2019-03-29T14:30:04.133Z,18.50
2019-03-29T14:32:23.919Z,18.50
2019-03-29T14:34:52.287Z,18.60
2019-03-29T14:37:20.689Z,18.70
2019-03-29T14:39:49.063Z,18.60
2019-03-29T14:42:17.461Z,18.60
2019-03-29T14:44:52.371Z,18.30
2019-03-29T14:47:15.888Z,18.10
2019-03-29T14:49:44.264Z,18.10
2019-03-29T14:52:12.670Z,18.20
2019-03-29T14:54:41.040Z,18.30
2019-03-29T14:57:09.447Z,18.40
2019-03-29T14:59:37.819Z,18.30
2019-03-29T15:02:06.206Z,18.40
2019-03-29T15:04:34.587Z,18.50
2019-03-29T15:07:02.963Z,18.40
2019-03-29T15:09:31.337Z,18.30
2019-03-29T15:11:59.728Z,18.30
2019-03-29T15:14:28.095Z,18.50
2019-03-29T15:16:56.488Z,18.40
2019-03-29T15:19:24.864Z,18.40
2019-03-29T15:21:53.266Z,18.50
2019-03-29T15:24:21.641Z,18.50
2019-03-29T15:26:50.022Z,18.30
2019-03-29T15:29:18.395Z,18.20
2019-03-29T15:31:46.803Z,18.20
2019-03-29T15:34:15.180Z,18.20
2019-03-29T15:36:43.570Z,18.00
2019-03-29T15:39:11.946Z,18.10
2019-03-29T15:41:40.420Z,18.10
2019-03-29T15:44:08.793Z,18.10
2019-03-29T15:46:37.182Z,18.00
2019-03-29T15:49:05.492Z,18.20
2019-03-29T15:51:33.929Z,18.20
2019-03-29T15:54:02.319Z,18.00
2019-03-29T15:56:30.737Z,17.90
2019-03-29T15:58:59.177Z,17.90
2019-03-29T16:01:27.554Z,17.90
2019-03-29T16:03:55.981Z,17.80
2019-03-29T16:06:24.371Z,17.70
2019-03-29T16:08:52.796Z,17.80
2019-03-29T16:11:22.550Z,17.80
2019-03-29T16:13:51.103Z,17.80
2019-03-29T16:16:19.498Z,17.70
2019-03-29T16:18:47.933Z,17.60
2019-03-29T16:21:16.311Z,17.60
2019-03-29T16:23:44.743Z,17.50
2019-03-29T16:26:13.144Z,17.60
2019-03-29T16:28:41.541Z,17.60
2019-03-29T16:31:09.949Z,17.60
2019-03-29T16:33:38.358Z,17.60
2019-03-29T16:36:06.757Z,17.70
2019-03-29T16:38:35.165Z,17.60
2019-03-29T16:41:03.620Z,17.50
2019-03-29T16:43:32.021Z,17.50
2019-03-29T16:46:00.548Z,17.50
2019-03-29T16:48:29.090Z,17.50
2019-03-29T16:50:57.494Z,17.40
2019-03-29T16:53:25.913Z,17.40
2019-03-29T16:55:54.312Z,17.40
2019-03-29T16:58:22.734Z,17.40
2019-03-29T17:00:51.212Z,17.40
2019-03-29T17:03:19.723Z,17.30
2019-03-29T17:05:48.146Z,17.20
2019-03-29T17:08:16.587Z,17.20
2019-03-29T17:10:45.191Z,17.10
2019-03-29T17:13:14.025Z,17.00
2019-03-29T17:15:42.589Z,17.00
2019-03-29T17:18:11.092Z,16.90
2019-03-29T17:20:39.507Z,16.90
2019-03-29T17:23:07.967Z,16.90
2019-03-29T17:25:36.449Z,16.80
2019-03-29T17:28:04.869Z,16.80
2019-03-29T17:30:39.500Z,16.70
2019-03-29T17:33:07.919Z,16.60
2019-03-29T17:35:36.315Z,16.60
2019-03-29T17:38:04.869Z,16.50
2019-03-29T17:40:33.350Z,16.40
2019-03-29T17:43:01.784Z,16.40
2019-03-29T17:45:30.219Z,16.30
2019-03-29T17:47:58.639Z,16.20
2019-03-29T17:50:27.064Z,16.20
2019-03-29T17:52:55.474Z,16.00
2019-03-29T17:55:23.903Z,15.90
2019-03-29T17:57:52.307Z,15.80
2019-03-29T18:00:22.350Z,15.70
2019-03-29T18:02:50.729Z,15.60
2019-03-29T18:05:20.064Z,15.50
2019-03-29T18:07:48.459Z,15.50
2019-03-29T18:10:18.141Z,15.50
2019-03-29T18:12:46.620Z,15.50
2019-03-29T18:15:15.237Z,15.30
2019-03-29T18:17:43.639Z,15.40
2019-03-29T18:20:12.037Z,15.40
2019-03-29T18:22:40.427Z,15.40
2019-03-29T18:25:08.927Z,15.40
2019-03-29T18:27:37.323Z,15.40
2019-03-29T18:30:09.289Z,15.30
2019-03-29T18:32:37.934Z,15.30
2019-03-29T18:35:07.333Z,15.30
2019-03-29T18:37:35.804Z,15.20
2019-03-29T18:40:05.684Z,15.10
2019-03-29T18:42:34.158Z,15.00
2019-03-29T18:45:02.846Z,15.10
2019-03-29T18:47:31.264Z,15.10
2019-03-29T18:49:59.684Z,15.00
2019-03-29T18:52:28.107Z,14.80
2019-03-29T18:54:56.569Z,14.80
2019-03-29T18:57:24.971Z,14.70
2019-03-29T18:59:53.390Z,14.60
2019-03-29T19:02:21.789Z,14.50
2019-03-29T19:04:50.265Z,14.50
2019-03-29T19:07:21.983Z,14.40
2019-03-29T19:09:50.463Z,14.30
2019-03-29T19:12:18.880Z,14.20
2019-03-29T19:14:48.655Z,14.10
2019-03-29T19:17:17.181Z,13.90
2019-03-29T19:19:45.735Z,13.80
2019-03-29T19:22:14.272Z,13.80
2019-03-29T19:24:42.661Z,13.80
2019-03-29T19:27:11.090Z,13.70
2019-03-29T19:29:39.553Z,13.60
2019-03-29T19:32:07.984Z,13.60
2019-03-29T19:34:36.415Z,13.60
2019-03-29T19:37:04.848Z,13.50
2019-03-29T19:39:33.286Z,13.50
2019-03-29T19:42:01.712Z,13.50
2019-03-29T19:44:30.133Z,13.50
2019-03-29T19:47:12.473Z,13.40
2019-03-29T19:49:28.673Z,13.40
2019-03-29T19:51:57.104Z,13.30
2019-03-29T19:54:25.511Z,13.30
2019-03-29T19:56:53.992Z,13.20
2019-03-29T19:59:22.941Z,13.20
2019-03-29T20:01:51.384Z,13.30
2019-03-29T20:04:19.798Z,13.20
2019-03-29T20:06:48.319Z,13.20
2019-03-29T20:09:16.794Z,13.10
2019-03-29T20:11:45.255Z,13.10
2019-03-29T20:14:13.686Z,13.10
2019-03-29T20:16:42.090Z,13.10
2019-03-29T20:19:11.640Z,13.10
2019-03-29T20:21:43.257Z,12.90
2019-03-29T20:24:11.713Z,12.80
2019-03-29T20:26:42.414Z,12.80
2019-03-29T20:29:10.811Z,12.70
2019-03-29T20:31:39.263Z,12.60
2019-03-29T20:34:07.794Z,12.50
2019-03-29T20:36:36.222Z,12.40
2019-03-29T20:39:06.998Z,12.20
2019-03-29T20:41:35.793Z,12.20
2019-03-29T20:44:04.198Z,12.10
2019-03-29T20:46:32.626Z,12.00
2019-03-29T20:49:01.044Z,12.00
2019-03-29T20:51:29.480Z,12.00
2019-03-29T20:53:58.008Z,11.90
2019-03-29T20:56:28.835Z,11.80
2019-03-29T20:58:56.557Z,11.70
2019-03-29T21:01:25.022Z,11.60
2019-03-29T21:03:53.416Z,11.60
2019-03-29T21:06:21.839Z,11.50
2019-03-29T21:08:50.246Z,11.40
2019-03-29T21:11:18.671Z,11.20
2019-03-29T21:13:47.215Z,11.20
2019-03-29T21:16:15.811Z,11.20
2019-03-29T21:18:44.227Z,11.20
2019-03-29T21:21:12.684Z,11.10
2019-03-29T21:23:41.108Z,11.10
2019-03-29T21:26:09.534Z,11.00
2019-03-29T21:28:37.956Z,10.90
2019-03-29T21:31:06.400Z,10.90
2019-03-29T21:33:34.946Z,10.90
2019-03-29T21:36:03.431Z,10.90
2019-03-29T21:38:31.902Z,10.80
2019-03-29T21:41:00.342Z,10.90
2019-03-29T21:43:28.798Z,10.80
2019-03-29T21:45:57.239Z,10.70
2019-03-29T21:48:28.898Z,10.60
2019-03-29T21:50:56.110Z,10.40
2019-03-29T21:53:24.645Z,10.40
2019-03-29T21:55:53.123Z,10.40
2019-03-29T21:58:21.496Z,10.30
2019-03-29T22:00:49.898Z,10.30
2019-03-29T22:03:18.322Z,10.30
2019-03-29T22:05:47.386Z,10.20
2019-03-29T22:08:17.972Z,10.00
2019-03-29T22:10:45.936Z,10.00
2019-03-29T22:13:14.401Z,9.90
2019-03-29T22:15:42.773Z,9.90
2019-03-29T22:18:11.166Z,9.80
2019-03-29T22:20:39.607Z,9.80
2019-03-29T22:23:08.006Z,9.90
2019-03-29T22:25:36.459Z,9.90
2019-03-29T22:28:04.846Z,9.60
2019-03-29T22:30:33.152Z,9.50
2019-03-29T22:33:03.992Z,9.40
2019-03-29T22:35:31.596Z,9.40
2019-03-29T22:37:59.984Z,9.30
2019-03-29T22:40:28.370Z,9.30
2019-03-29T22:42:56.776Z,9.40
2019-03-29T22:45:25.143Z,9.40
2019-03-29T22:47:53.546Z,9.40
2019-03-29T22:50:21.958Z,9.50
2019-03-29T22:52:50.327Z,9.60
2019-03-29T22:55:18.786Z,9.50
2019-03-29T22:57:47.246Z,9.40
2019-03-29T23:00:18.832Z,9.30
2019-03-29T23:02:47.308Z,9.30
2019-03-29T23:05:15.681Z,9.10
2019-03-29T23:07:44.079Z,9.20
2019-03-29T23:10:12.484Z,9.20
2019-03-29T23:12:40.880Z,9.20
2019-03-29T23:15:09.272Z,9.10
2019-03-29T23:17:37.676Z,9.10
2019-03-29T23:20:06.207Z,9.10
2019-03-29T23:22:34.532Z,9.00
2019-03-29T23:25:02.986Z,9.10
2019-03-29T23:27:31.380Z,8.90
2019-03-29T23:29:59.754Z,8.80
2019-03-29T23:32:28.164Z,8.70
2019-03-29T23:34:56.539Z,8.70
2019-03-29T23:37:24.948Z,8.80
2019-03-29T23:39:53.303Z,8.70
2019-03-29T23:42:21.682Z,8.70
2019-03-29T23:44:50.096Z,8.70
2019-03-29T23:47:18.480Z,8.60
2019-03-29T23:49:47.189Z,8.60
2019-03-29T23:52:15.666Z,8.60
2019-03-29T23:54:44.055Z,8.50
2019-03-29T23:57:12.448Z,8.60
2019-03-29T23:59:40.842Z,8.50
